Time;durP1;ratioP1;P1;durP2;ratioP2;P2;SDS_P1;SDS_P2;PMS_P1;PMS_P2;Temp;Humidity;BMP_temperature;BMP_pressure;BME280_temperature;BME280_humidity;BME280_pressure;Samples;Min_cycle;Max_cycle;Signal;HPM_P1;HPM_P2
2022/05/22 00:01:03;;;;;;;11.07;6.65;;;;;;;11.90;86.33;101895.72;5095487;28;20455;-76
2022/05/22 00:03:28;;;;;;;10.25;5.70;;;;;;;11.87;86.34;101896.66;5095129;28;20126;-76
2022/05/22 00:05:53;;;;;;;13.63;6.43;;;;;;;11.88;86.42;101894.91;5110088;28;20139;-76
2022/05/22 00:08:19;;;;;;;11.32;6.18;;;;;;;11.82;86.47;101889.72;5113942;28;20459;-76
2022/05/22 00:10:45;;;;;;;11.85;6.32;;;;;;;11.81;86.90;101886.25;5113981;28;20077;-76
2022/05/22 00:13:10;;;;;;;11.65;6.30;;;;;;;11.81;87.01;101883.63;5115348;28;20031;-76
2022/05/22 00:15:41;;;;;;;12.57;6.22;;;;;;;11.81;86.74;101888.00;5113167;28;20032;-76
2022/05/22 00:18:07;;;;;;;12.68;6.90;;;;;;;11.78;87.14;101875.81;5114664;28;20031;-76
2022/05/22 00:20:32;;;;;;;12.40;6.80;;;;;;;11.80;87.28;101884.50;5114540;28;20027;-76
2022/05/22 00:22:57;;;;;;;12.30;7.30;;;;;;;11.87;87.37;101885.31;5115370;28;20027;-76
2022/05/22 00:25:22;;;;;;;16.08;7.18;;;;;;;11.88;87.29;101882.69;5113412;28;20028;-76
2022/05/22 00:27:48;;;;;;;13.50;7.00;;;;;;;11.97;87.72;101881.72;5108877;28;20070;-76
2022/05/22 00:30:14;;;;;;;16.98;7.43;;;;;;;12.03;87.10;101878.16;5094648;28;20379;-76
2022/05/22 00:32:40;;;;;;;17.70;7.53;;;;;;;12.06;87.12;101873.75;5094894;28;20024;-76
2022/05/22 00:35:06;;;;;;;14.90;7.68;;;;;;;12.09;86.97;101857.16;5100123;28;20034;-76
2022/05/22 00:37:32;;;;;;;14.05;6.95;;;;;;;12.09;85.79;101863.25;5113543;28;20110;-76
2022/05/22 00:39:57;;;;;;;13.40;7.00;;;;;;;12.10;85.42;101866.75;5115503;28;20077;-76
2022/05/22 00:42:24;;;;;;;11.75;7.03;;;;;;;12.13;85.51;101870.19;5114732;28;20035;-76
2022/05/22 00:44:50;;;;;;;16.73;6.53;;;;;;;12.20;85.45;101863.13;5113612;27;20024;-76
2022/05/22 00:47:16;;;;;;;14.40;6.55;;;;;;;12.27;85.77;101861.28;5109837;28;20034;-76
2022/05/22 00:49:43;;;;;;;13.23;6.70;;;;;;;12.32;84.47;101857.69;5094142;28;20102;-76
2022/05/22 00:52:30;;;;;;;14.63;7.43;;;;;;;12.38;84.79;101852.38;5094053;28;20809;-76
2022/05/22 00:55:20;;;;;;;11.30;7.25;;;;;;;12.40;85.17;101865.44;5099117;28;20034;-76
2022/05/22 00:57:52;;;;;;;15.65;8.23;;;;;;;12.41;84.81;101868.03;5113565;28;20040;-76
2022/05/22 01:00:21;;;;;;;16.88;8.05;;;;;;;12.38;84.77;101852.38;5114547;28;20491;-76
2022/05/22 01:05:32;;;;;;;16.15;7.90;;;;;;;12.25;85.53;101847.38;5111951;28;20055;-76
2022/05/22 01:07:59;;;;;;;16.17;8.55;;;;;;;12.17;86.00;101845.72;5114938;28;20448;-76
2022/05/22 01:10:32;;;;;;;21.00;9.27;;;;;;;12.18;86.45;101850.06;5114015;28;20072;-76
2022/05/22 01:12:59;;;;;;;14.80;7.65;;;;;;;12.11;86.00;101850.19;5113365;28;20110;-76
2022/05/22 01:15:24;;;;;;;14.23;7.75;;;;;;;12.08;86.17;101860.66;5112451;28;20451;-76
2022/05/22 01:17:50;;;;;;;14.63;7.68;;;;;;;11.98;86.42;101861.69;5095721;28;20531;-76
2022/05/22 01:20:15;;;;;;;15.88;8.10;;;;;;;11.91;86.75;101860.91;5093938;28;20028;-76
2022/05/22 01:22:41;;;;;;;14.63;7.60;;;;;;;11.84;87.00;101860.13;5093482;28;20028;-76
2022/05/22 01:25:08;;;;;;;14.65;8.30;;;;;;;11.77;87.22;101866.28;5103969;28;20453;-76
2022/05/22 01:27:35;;;;;;;13.35;8.20;;;;;;;11.66;87.38;101844.63;5113934;28;20483;-76
2022/05/22 01:30:09;;;;;;;14.88;8.20;;;;;;;11.65;87.64;101841.16;5114099;28;20035;-76
2022/05/22 01:32:35;;;;;;;17.20;8.77;;;;;;;11.69;88.13;101844.59;5094949;28;20042;-76
2022/05/22 01:35:00;;;;;;;16.73;7.90;;;;;;;11.64;87.84;101836.81;5103327;28;20063;-76
2022/05/22 01:37:25;;;;;;;14.70;8.27;;;;;;;11.61;87.94;101834.25;5113566;28;20063;-76
2022/05/22 01:39:52;;;;;;;17.63;8.77;;;;;;;11.58;88.29;101834.28;5113622;28;20016;-76
2022/05/22 01:42:17;;;;;;;15.85;8.25;;;;;;;11.55;88.58;101828.22;5114085;28;20023;-76
2022/05/22 01:44:43;;;;;;;19.02;8.02;;;;;;;11.47;88.75;101813.47;5110625;28;20050;-76
2022/05/22 01:47:08;;;;;;;10.65;7.32;;;;;;;11.40;89.46;101822.28;5113971;28;20020;-76
2022/05/22 01:49:33;;;;;;;14.13;8.23;;;;;;;11.32;89.30;101815.44;5113654;28;20034;-76
2022/05/22 01:51:59;;;;;;;15.30;7.75;;;;;;;11.28;89.06;101822.44;5113286;28;20092;-76
2022/05/22 01:54:24;;;;;;;15.07;8.05;;;;;;;11.22;89.45;101812.06;5112064;27;20030;-76
2022/05/22 01:56:50;;;;;;;18.15;8.32;;;;;;;11.19;90.05;101822.53;5113006;28;20028;-76
2022/05/22 01:59:15;;;;;;;18.63;8.13;;;;;;;11.13;89.60;101814.75;5113187;28;20110;-75
2022/05/22 02:01:40;;;;;;;16.35;8.02;;;;;;;11.03;89.98;101824.41;5113450;28;20023;-76
2022/05/22 02:04:06;;;;;;;14.18;8.35;;;;;;;11.07;90.61;101820.03;5111334;28;20471;-76
2022/05/22 02:06:31;;;;;;;15.95;8.13;;;;;;;10.99;90.94;101820.97;5112554;28;20023;-76
2022/05/22 02:08:56;;;;;;;17.08;7.88;;;;;;;10.90;90.99;101804.53;5113446;28;20375;-76
2022/05/22 02:11:22;;;;;;;16.35;7.78;;;;;;;10.94;90.85;101819.28;5113239;28;20065;-76
2022/05/22 02:13:48;;;;;;;16.23;7.90;;;;;;;10.91;91.34;101814.09;5100340;28;20024;-75
2022/05/22 02:16:15;;;;;;;14.23;7.70;;;;;;;10.84;91.05;101809.81;5110805;28;20024;-76
2022/05/22 02:18:41;;;;;;;17.25;8.13;;;;;;;10.78;91.08;101814.19;5113320;28;20025;-76
2022/05/22 02:21:07;;;;;;;16.25;7.78;;;;;;;10.73;91.56;101812.53;5112765;28;20433;-76
2022/05/22 02:23:34;;;;;;;14.30;8.20;;;;;;;10.69;92.30;101816.00;5110882;28;20030;-75
2022/05/22 02:26:00;;;;;;;16.17;8.48;;;;;;;10.62;92.29;101809.97;5111459;28;20487;-75
2022/05/22 02:28:26;;;;;;;16.63;8.68;;;;;;;10.57;92.49;101797.88;5112934;28;20073;-76
2022/05/22 02:30:58;;;;;;;15.40;7.40;;;;;;;10.52;92.67;101796.16;5113142;28;20019;-76
2022/05/22 02:33:24;;;;;;;17.05;8.43;;;;;;;10.51;92.77;101791.84;5111273;28;20043;-76
2022/05/22 02:35:51;;;;;;;15.45;7.93;;;;;;;10.47;92.71;101786.66;5111434;28;20036;-76
2022/05/22 02:38:17;;;;;;;16.40;8.30;;;;;;;10.48;93.47;101791.84;5112648;28;20028;-76
2022/05/22 02:40:43;;;;;;;16.38;9.00;;;;;;;10.39;93.17;101786.69;5111407;28;20031;-76
2022/05/22 02:43:09;;;;;;;15.50;7.95;;;;;;;10.38;93.17;101779.78;5112064;28;20032;-75
2022/05/22 02:45:37;;;;;;;15.23;8.48;;;;;;;10.35;93.42;101776.31;5109917;28;20030;-76
2022/05/22 02:48:04;;;;;;;14.45;8.65;;;;;;;10.32;93.72;101770.25;5112522;28;20024;-76
2022/05/22 02:50:30;;;;;;;17.23;8.95;;;;;;;10.27;93.69;101773.78;5112421;28;20080;-75
2022/05/22 02:52:56;;;;;;;13.88;8.32;;;;;;;10.14;93.84;101761.69;5112482;28;20048;-76
2022/05/22 02:55:22;;;;;;;15.05;8.63;;;;;;;10.16;93.94;101778.16;5105482;28;20046;-75
2022/05/22 02:57:47;;;;;;;12.48;8.60;;;;;;;10.09;94.54;101778.19;5112450;28;20467;-76
2022/05/22 03:00:19;;;;;;;16.05;9.35;;;;;;;10.12;94.87;101781.66;5112578;28;20167;-76
2022/05/22 03:02:45;;;;;;;16.65;8.95;;;;;;;10.09;94.86;101775.59;5107466;28;20020;-76
2022/05/22 03:05:11;;;;;;;16.10;9.05;;;;;;;10.09;95.39;101779.94;5105930;28;20104;-75
2022/05/22 03:07:37;;;;;;;12.73;8.98;;;;;;;10.09;95.75;101777.34;5110527;28;20027;-76
2022/05/22 03:10:04;;;;;;;17.95;9.23;;;;;;;10.12;96.06;101772.09;5112043;28;20023;-75
2022/05/22 03:12:29;;;;;;;15.20;8.85;;;;;;;10.06;96.03;101764.31;5112186;28;20020;-75
2022/05/22 03:14:56;;;;;;;16.90;9.20;;;;;;;10.12;96.06;101768.63;5110272;28;20391;-75
2022/05/22 03:17:22;;;;;;;14.23;8.98;;;;;;;10.11;95.77;101769.53;5111596;28;20020;-75
2022/05/22 03:19:47;;;;;;;17.05;9.63;;;;;;;10.09;95.56;101767.78;5112196;28;20030;-75
2022/05/22 03:22:13;;;;;;;14.20;8.85;;;;;;;10.04;95.26;101755.69;5111494;28;20019;-75
2022/05/22 03:24:40;;;;;;;14.02;8.70;;;;;;;10.07;95.46;101769.53;5109304;28;20111;-75
2022/05/22 03:27:10;;;;;;;19.40;9.10;;;;;;;10.06;95.51;101761.72;5111544;28;20023;-75
2022/05/22 03:29:35;;;;;;;16.10;9.05;;;;;;;10.09;95.43;101756.50;5111639;28;20016;-75
2022/05/22 03:32:01;;;;;;;19.42;9.13;;;;;;;10.15;95.79;101755.59;5112294;28;20039;-76
2022/05/22 03:34:26;;;;;;;20.88;9.90;;;;;;;10.17;95.48;101749.50;5110511;28;20044;-76
2022/05/22 03:36:51;;;;;;;14.07;10.05;;;;;;;10.22;95.18;101744.25;5110917;28;20088;-75
2022/05/22 03:39:17;;;;;;;15.63;9.05;;;;;;;10.23;95.25;101746.81;5111847;28;20031;-75
2022/05/22 03:41:42;;;;;;;20.15;9.80;;;;;;;10.20;95.15;101743.38;5111895;28;20031;-75
2022/05/22 03:44:08;;;;;;;15.43;9.18;;;;;;;10.14;95.09;101735.63;5109822;28;20039;-75
2022/05/22 03:46:34;;;;;;;17.23;9.38;;;;;;;10.10;95.47;101737.38;5111512;28;20024;-76
2022/05/22 03:48:59;;;;;;;18.42;9.95;;;;;;;10.08;95.19;101745.22;5112225;28;20024;-75
2022/05/22 03:51:25;;;;;;;14.02;9.70;;;;;;;10.05;95.12;101736.56;5111632;28;20035;-75
2022/05/22 03:53:50;;;;;;;16.77;9.63;;;;;;;9.88;95.54;101709.75;5109336;28;20558;-75
2022/05/22 03:56:17;;;;;;;17.77;9.15;;;;;;;10.00;95.85;101730.50;5112007;28;20074;-76
2022/05/22 03:58:43;;;;;;;19.48;9.50;;;;;;;9.96;95.62;101729.66;5111399;28;20019;-75
2022/05/22 04:01:09;;;;;;;14.93;9.25;;;;;;;9.97;95.85;101733.13;5111863;28;20030;-75
2022/05/22 04:03:35;;;;;;;15.48;9.68;;;;;;;9.96;96.14;101742.69;5110787;28;20093;-75
2022/05/22 04:06:02;;;;;;;18.17;9.00;;;;;;;10.01;96.08;101746.13;5110425;28;20031;-75
2022/05/22 04:08:28;;;;;;;14.77;9.27;;;;;;;10.04;95.93;101753.94;5111957;28;20027;-76
2022/05/22 04:10:54;;;;;;;16.52;9.68;;;;;;;10.11;95.96;101748.69;5111867;28;20027;-75
2022/05/22 04:13:19;;;;;;;19.20;9.50;;;;;;;10.18;95.73;101743.41;5111136;28;20099;-75
2022/05/22 04:15:46;;;;;;;18.38;9.00;;;;;;;10.27;95.62;101745.97;5109321;28;20035;-75
2022/05/22 04:18:12;;;;;;;16.95;9.80;;;;;;;10.31;96.06;101736.41;5111563;28;20364;-75
2022/05/22 04:20:37;;;;;;;17.38;10.10;;;;;;;10.37;95.71;101733.75;5114052;27;20022;-75
2022/05/22 04:25:56;;;;;;;;;;;;;;;10.48;93.84;101739.72;5112771;28;20675;-75
2022/05/22 04:28:23;;;;;;;14.73;9.60;;;;;;;10.53;95.41;101740.56;5114340;28;19949;-75
2022/05/22 04:30:49;;;;;;;14.95;10.40;;;;;;;10.55;95.85;101723.13;5115175;28;20024;-75
2022/05/22 04:33:14;;;;;;;16.38;10.10;;;;;;;10.58;95.66;101721.38;5114674;28;20042;-75
2022/05/22 04:35:40;;;;;;;20.42;12.18;;;;;;;10.59;95.58;101716.13;5113809;28;20040;-75
2022/05/22 04:38:05;;;;;;;23.27;13.20;;;;;;;10.65;95.45;101728.25;5115572;28;20040;-75
2022/05/22 04:40:31;;;;;;;26.23;13.73;;;;;;;10.66;95.60;101730.88;5114422;28;20026;-76
2022/05/22 04:42:56;;;;;;;19.83;13.32;;;;;;;10.65;95.53;101734.34;5115184;28;20098;-75
2022/05/22 04:45:21;;;;;;;23.40;13.88;;;;;;;10.69;94.91;101740.38;5112976;28;20517;-76
2022/05/22 04:47:47;;;;;;;19.48;13.63;;;;;;;10.74;94.91;101736.00;5113561;28;20455;-75
2022/05/22 04:50:14;;;;;;;20.52;13.75;;;;;;;10.76;95.03;101748.16;5114873;28;20020;-75
2022/05/22 04:52:39;;;;;;;25.75;13.98;;;;;;;10.76;94.98;101740.34;5114796;28;20050;-75
2022/05/22 04:55:06;;;;;;;20.70;13.15;;;;;;;10.73;94.70;101744.72;5113384;28;20028;-75
2022/05/22 04:57:31;;;;;;;20.13;13.27;;;;;;;10.71;94.84;101741.25;5113237;28;20038;-75
2022/05/22 04:59:57;;;;;;;23.55;14.48;;;;;;;10.65;94.84;101736.94;5113975;28;20028;-75
2022/05/22 05:02:23;;;;;;;23.10;15.18;;;;;;;10.57;95.22;101720.53;5114390;28;20028;-76
2022/05/22 05:04:52;;;;;;;22.10;14.25;;;;;;;10.54;95.52;101723.16;5108897;28;20072;-75
2022/05/22 05:07:17;;;;;;;23.17;14.55;;;;;;;10.58;95.76;101722.25;5113766;28;20032;-75
2022/05/22 05:09:42;;;;;;;23.02;15.10;;;;;;;10.60;95.82;101717.03;5113860;28;20036;-75
2022/05/22 05:12:09;;;;;;;23.60;14.95;;;;;;;10.67;95.53;101727.38;5113710;28;20043;-76
2022/05/22 05:14:34;;;;;;;23.63;15.57;;;;;;;10.77;95.79;101726.41;5109316;28;20043;-75
2022/05/22 05:17:00;;;;;;;22.23;15.38;;;;;;;10.85;95.03;101725.44;5102285;28;20023;-76
2022/05/22 05:19:25;;;;;;;22.17;15.85;;;;;;;10.92;94.90;101717.56;5113770;28;20417;-76
2022/05/22 05:21:55;;;;;;;24.75;15.00;;;;;;;11.02;94.96;101727.00;5113959;28;20132;-75
2022/05/22 05:24:21;;;;;;;21.27;15.50;;;;;;;11.11;94.99;101726.03;5112718;27;20031;-75
2022/05/22 05:26:48;;;;;;;20.10;15.15;;;;;;;11.17;94.53;101715.53;5099877;28;20035;-75
2022/05/22 05:29:13;;;;;;;22.10;15.00;;;;;;;11.35;93.78;101722.28;5093234;28;20116;-75
2022/05/22 05:31:39;;;;;;;19.83;14.30;;;;;;;11.44;93.20;101719.56;5092728;28;20103;-75
2022/05/22 05:34:04;;;;;;;21.25;14.68;;;;;;;11.53;93.16;101729.00;5094115;28;20024;-75
2022/05/22 05:36:29;;;;;;;21.02;14.48;;;;;;;11.61;92.98;101715.84;5111601;28;20084;-76
2022/05/22 05:38:54;;;;;;;22.42;14.68;;;;;;;11.65;91.57;101722.75;5110932;28;20027;-75
2022/05/22 05:41:20;;;;;;;22.52;13.85;;;;;;;11.74;91.34;101727.84;5113122;28;20028;-76
2022/05/22 05:43:45;;;;;;;23.95;15.25;;;;;;;11.80;91.42;101732.09;5112114;28;20463;-76
2022/05/22 05:46:10;;;;;;;23.63;14.27;;;;;;;11.85;90.81;101731.19;5111483;28;20075;-75
2022/05/22 05:48:36;;;;;;;24.50;14.85;;;;;;;11.86;90.82;101717.22;5113916;28;20498;-75
2022/05/22 05:51:01;;;;;;;19.92;15.23;;;;;;;11.95;89.84;101730.16;5113634;28;20102;-75
2022/05/22 05:53:27;;;;;;;21.17;14.57;;;;;;;12.01;90.13;101730.97;5113447;28;20474;-76
2022/05/22 05:55:52;;;;;;;25.30;15.13;;;;;;;12.11;88.91;101740.41;5112420;28;20024;-75
2022/05/22 05:58:17;;;;;;;24.40;15.50;;;;;;;12.20;88.53;101732.41;5112912;28;20020;-76
2022/05/22 06:00:43;;;;;;;19.73;14.43;;;;;;;12.27;88.73;101728.81;5112154;28;20429;-75
2022/05/22 06:03:09;;;;;;;25.08;16.35;;;;;;;12.46;88.29;101728.47;5112865;28;20487;-75
2022/05/22 06:05:34;;;;;;;23.42;15.45;;;;;;;12.62;87.33;101727.31;5111632;28;20042;-75
2022/05/22 06:07:59;;;;;;;23.90;15.13;;;;;;;12.77;86.91;101729.66;5113604;28;20051;-75
2022/05/22 06:10:25;;;;;;;23.67;14.23;;;;;;;12.89;86.51;101728.59;5112133;28;20055;-76
2022/05/22 06:12:50;;;;;;;22.02;14.57;;;;;;;13.04;85.83;101727.41;5112432;28;20035;-75
2022/05/22 06:15:16;;;;;;;26.30;14.93;;;;;;;13.12;85.23;101715.91;5111373;28;20039;-75
2022/05/22 06:17:43;;;;;;;25.10;14.52;;;;;;;13.28;84.04;101729.59;5113341;28;20027;-75
2022/05/22 06:20:11;;;;;;;26.50;14.77;;;;;;;13.45;82.58;101734.47;5110625;28;20106;-75
2022/05/22 06:22:37;;;;;;;20.60;13.52;;;;;;;13.58;82.13;101730.69;5113005;28;20160;-76
2022/05/22 06:25:08;;;;;;;20.60;13.90;;;;;;;13.69;82.49;101726.97;5111441;28;20106;-75
2022/05/22 06:27:33;;;;;;;20.05;14.68;;;;;;;13.73;81.77;101734.75;5111177;28;20024;-76
2022/05/22 06:29:59;;;;;;;21.23;13.68;;;;;;;13.75;81.96;101729.47;5113243;27;20020;-75
2022/05/22 06:32:25;;;;;;;20.05;13.73;;;;;;;13.77;81.55;101738.16;5112554;28;20107;-76
2022/05/22 06:34:51;;;;;;;21.83;13.85;;;;;;;13.75;81.39;101739.94;5111517;28;20061;-75
2022/05/22 06:37:19;;;;;;;25.45;13.85;;;;;;;13.67;81.21;101747.09;5112869;28;20054;-75
2022/05/22 06:39:50;;;;;;;20.92;13.25;;;;;;;13.59;82.04;101748.13;5111027;28;20427;-75
2022/05/22 06:42:34;;;;;;;20.92;12.70;;;;;;;13.53;82.13;101748.25;5112668;27;20020;-76
2022/05/22 06:45:11;;;;;;;21.02;13.00;;;;;;;13.35;81.62;101733.81;5111277;28;20035;-76
2022/05/22 06:47:37;;;;;;;18.98;13.00;;;;;;;13.26;82.80;101741.84;5112214;28;20036;-75
2022/05/22 06:50:05;;;;;;;22.52;12.65;;;;;;;13.20;84.01;101741.94;5112586;28;20023;-76
2022/05/22 06:52:32;;;;;;;21.92;13.38;;;;;;;13.18;82.85;101735.88;5112118;28;20039;-76
2022/05/22 06:54:58;;;;;;;24.88;14.35;;;;;;;13.28;83.64;101737.44;5110370;28;20120;-76
2022/05/22 06:57:24;;;;;;;20.23;13.60;;;;;;;13.42;82.24;101738.91;5110697;28;20031;-76
2022/05/22 06:59:54;;;;;;;25.58;13.63;;;;;;;13.66;81.72;101737.53;5112685;28;20065;-76
2022/05/22 07:02:19;;;;;;;19.75;13.27;;;;;;;13.80;82.15;101741.56;5111715;28;20027;-76
2022/05/22 07:04:45;;;;;;;19.83;13.15;;;;;;;13.96;81.06;101730.72;5110056;28;20028;-76
2022/05/22 07:07:10;;;;;;;21.20;12.52;;;;;;;14.08;79.68;101738.31;5110112;28;20053;-76
2022/05/22 07:09:36;;;;;;;17.90;13.05;;;;;;;14.15;78.98;101742.50;5111366;28;20032;-76
2022/05/22 07:12:05;;;;;;;19.00;12.48;;;;;;;14.12;79.31;101742.56;5112791;28;20033;-76
2022/05/22 07:14:32;;;;;;;20.58;13.23;;;;;;;14.15;78.31;101731.16;5109908;28;20032;-76
2022/05/22 07:17:01;;;;;;;18.13;12.32;;;;;;;14.22;77.86;101728.34;5112413;28;20016;-76
2022/05/22 07:19:26;;;;;;;19.70;12.65;;;;;;;14.33;78.62;101730.72;5112223;28;20055;-76
2022/05/22 07:21:51;;;;;;;20.92;12.20;;;;;;;14.52;79.57;101729.38;5111587;28;20055;-76
2022/05/22 07:24:16;;;;;;;18.17;12.57;;;;;;;14.72;77.50;101728.84;5111045;28;20024;-76
2022/05/22 07:26:42;;;;;;;18.92;12.63;;;;;;;14.84;76.94;101713.66;5110887;28;20081;-76
2022/05/22 07:29:07;;;;;;;19.20;12.63;;;;;;;14.95;76.38;101720.34;5109658;28;20126;-76
2022/05/22 07:31:34;;;;;;;20.27;11.90;;;;;;;15.03;77.53;101706.13;5092754;28;20024;-76
2022/05/22 07:33:59;;;;;;;15.55;10.60;;;;;;;15.11;74.99;101704.19;5091947;28;20082;-76
2022/05/22 07:36:25;;;;;;;18.80;11.00;;;;;;;15.36;74.75;101712.19;5103675;28;20172;-76
2022/05/22 07:38:50;;;;;;;17.83;10.90;;;;;;;15.39;73.48;101706.84;5111076;28;20032;-76
2022/05/22 07:41:16;;;;;;;17.85;10.38;;;;;;;15.51;73.88;101703.00;5099972;28;20039;-76
2022/05/22 07:43:41;;;;;;;16.20;10.48;;;;;;;15.72;73.98;101714.63;5111501;28;20028;-76
2022/05/22 07:46:09;;;;;;;17.95;10.40;;;;;;;15.93;71.35;101716.59;5101473;28;20101;-76
2022/05/22 07:48:35;;;;;;;17.27;9.52;;;;;;;16.28;70.11;101722.47;5091307;28;20104;-76
2022/05/22 07:51:03;;;;;;;15.18;8.50;;;;;;;16.50;68.74;101715.56;5091004;28;20123;-76
2022/05/22 07:53:29;;;;;;;15.40;8.07;;;;;;;16.57;65.50;101708.31;5099870;28;20503;-76
2022/05/22 07:55:54;;;;;;;13.18;5.95;;;;;;;16.49;62.73;101707.75;5115542;28;20036;-76
2022/05/22 07:58:21;;;;;;;12.80;6.50;;;;;;;16.32;65.34;101703.91;5115268;28;20106;-76
2022/05/22 08:00:48;;;;;;;12.65;6.25;;;;;;;16.20;66.22;101693.78;5114666;28;20382;-76
2022/05/22 08:03:16;;;;;;;11.73;6.63;;;;;;;16.12;64.80;101698.44;5111737;28;20042;-76
2022/05/22 08:05:41;;;;;;;13.13;7.03;;;;;;;16.12;65.46;101690.53;5114052;28;20135;-76
2022/05/22 08:08:08;;;;;;;11.52;6.88;;;;;;;16.01;62.57;101693.53;5106899;28;20519;-77
2022/05/22 08:10:36;;;;;;;12.93;5.60;;;;;;;15.95;65.09;101693.72;5111715;28;20035;-77
2022/05/22 08:13:02;;;;;;;10.27;5.50;;;;;;;16.07;64.89;101680.19;5095541;28;20386;-78
2022/05/22 08:15:31;;;;;;;12.68;5.43;;;;;;;16.30;63.87;101686.47;5104474;28;20112;-77
2022/05/22 08:17:57;;;;;;;7.53;2.58;;;;;;;16.43;61.63;101685.13;5094314;28;20051;-78
2022/05/22 08:20:22;;;;;;;6.18;2.97;;;;;;;16.69;58.22;101678.94;5096212;28;20035;-78
2022/05/22 08:22:54;;;;;;;6.93;3.38;;;;;;;16.99;59.70;101669.09;5109633;28;20043;-79
2022/05/22 08:25:20;;;;;;;10.40;4.95;;;;;;;17.18;57.96;101665.78;5096233;27;20110;-78
2022/05/22 08:27:45;;;;;;;11.88;5.55;;;;;;;17.26;56.74;101666.34;5107801;28;20532;-78
2022/05/22 08:30:16;;;;;;;12.35;4.38;;;;;;;17.41;57.96;101660.47;5094869;28;20111;-78
2022/05/22 08:32:43;;;;;;;8.55;3.88;;;;;;;17.54;60.65;101653.81;5097735;28;20019;-78
2022/05/22 08:35:11;;;;;;;10.52;4.80;;;;;;;17.74;58.29;101649.50;5109364;28;20069;-78
2022/05/22 08:37:37;;;;;;;9.60;3.88;;;;;;;17.78;56.84;101644.06;5107115;28;20509;-79
2022/05/22 08:40:04;;;;;;;7.05;3.47;;;;;;;17.85;54.94;101639.41;5101145;28;20027;-79
2022/05/22 08:42:38;;;;;;;7.15;3.25;;;;;;;17.85;55.74;101639.41;5110253;28;20031;-79
2022/05/22 08:45:11;;;;;;;8.27;2.70;;;;;;;17.95;53.57;101630.22;5106101;27;20028;-79
2022/05/22 08:47:56;;;;;;;9.13;3.35;;;;;;;18.06;55.47;101632.41;5114464;28;20100;-79
2022/05/22 08:50:22;;;;;;;7.05;2.95;;;;;;;18.23;52.54;101631.69;5111816;28;20112;-79
2022/05/22 08:52:51;;;;;;;9.45;3.45;;;;;;;18.29;52.51;101625.28;5101306;28;20036;-79
2022/05/22 08:55:24;;;;;;;11.27;5.40;;;;;;;18.24;54.56;101625.47;5100273;28;20043;-78
2022/05/22 09:01:11;;;;;;;9.55;4.93;;;;;;;18.50;52.99;101616.41;5071484;28;20037;-78
2022/05/22 09:03:45;;;;;;;9.70;4.72;;;;;;;18.60;51.53;101619.50;5087765;28;20126;-79
2022/05/22 09:06:10;;;;;;;9.18;5.07;;;;;;;18.73;51.76;101609.28;5098138;28;20039;-77
2022/05/22 09:08:43;;;;;;;13.32;4.90;;;;;;;18.90;53.20;101604.94;5093637;28;20027;-78
2022/05/22 09:11:29;;;;;;;9.07;4.90;;;;;;;19.05;53.42;101611.28;5107307;28;20080;-78
2022/05/22 09:14:05;;;;;;;12.90;5.72;;;;;;;19.19;53.44;101613.28;5113977;28;20120;-78
2022/05/22 09:16:38;;;;;;;12.60;5.10;;;;;;;19.21;52.69;101608.78;5114229;28;20031;-78
2022/05/22 09:19:14;;;;;;;13.43;5.32;;;;;;;19.24;52.61;101600.72;5106978;28;20043;-78
2022/05/22 09:21:56;;;;;;;10.98;5.05;;;;;;;19.30;52.10;101600.41;5093482;28;20460;-78
2022/05/22 09:24:37;;;;;;;9.60;5.10;;;;;;;19.33;51.32;101594.13;5093738;28;20031;-78
2022/05/22 09:27:14;;;;;;;10.93;4.43;;;;;;;19.11;51.39;101591.66;5099837;28;20434;-79
2022/05/22 09:30:01;;;;;;;10.55;4.47;;;;;;;19.15;52.70;101587.94;5099702;28;20067;-78
2022/05/22 09:32:56;;;;;;;11.00;4.88;;;;;;;19.14;52.97;101583.59;5096806;28;20021;-78
2022/05/22 09:36:03;;;;;;;12.30;4.88;;;;;;;19.25;52.82;101583.06;5104360;28;20540;-78
2022/05/22 09:38:54;;;;;;;9.88;5.32;;;;;;;19.35;50.21;101585.19;5093366;28;20036;-78
2022/05/22 09:41:32;;;;;;;10.48;5.88;;;;;;;19.47;50.84;101578.44;5093597;28;20031;-78
2022/05/22 09:44:32;;;;;;;13.75;5.78;;;;;;;19.60;51.94;101574.25;5093260;28;20475;-78
2022/05/22 09:47:34;;;;;;;10.75;5.38;;;;;;;19.77;51.41;101560.22;5098532;28;20019;-78
2022/05/22 09:50:12;;;;;;;16.25;7.03;;;;;;;19.77;50.47;101562.00;5098075;28;20042;-79
2022/05/22 09:52:48;;;;;;;8.93;5.07;;;;;;;19.93;50.82;101562.09;5101385;28;20079;-79
2022/05/22 09:55:32;;;;;;;11.18;6.00;;;;;;;20.07;51.89;101576.31;5094290;28;20027;-79
2022/05/22 09:58:03;;;;;;;12.93;5.50;;;;;;;20.27;49.71;101570.00;5105420;28;20452;-79
2022/05/22 10:00:37;;;;;;;11.23;6.45;;;;;;;20.16;49.14;101569.69;5100938;28;20529;-78
2022/05/22 10:03:13;;;;;;;12.25;5.55;;;;;;;20.17;48.91;101571.41;5110487;28;20042;-78
2022/05/22 10:06:07;;;;;;;12.50;5.90;;;;;;;20.17;48.89;101571.41;5111987;28;20077;-78
2022/05/22 10:08:44;;;;;;;13.25;5.03;;;;;;;20.28;48.79;101568.22;5088126;28;20080;-79
2022/05/22 10:11:23;;;;;;;9.75;6.40;;;;;;;20.52;51.78;101566.94;5101358;28;20034;-78
2022/05/22 10:14:21;;;;;;;9.98;5.13;;;;;;;20.64;49.73;101568.06;5099711;28;20015;-78
2022/05/22 10:16:57;;;;;;;13.52;5.00;;;;;;;20.77;49.82;101558.50;5107667;28;20036;-78
2022/05/22 10:19:56;;;;;;;11.85;5.00;;;;;;;20.91;50.39;101557.75;5106042;28;20027;-78
2022/05/22 10:22:38;;;;;;;12.02;5.43;;;;;;;20.83;45.29;101562.63;5094825;28;20467;-78
2022/05/22 10:25:24;;;;;;;10.48;5.43;;;;;;;20.69;48.65;101555.41;5101711;28;20043;-78
2022/05/22 10:28:02;;;;;;;11.60;6.10;;;;;;;20.77;48.83;101560.31;5103210;28;20040;-78
2022/05/22 10:30:49;;;;;;;10.27;5.13;;;;;;;20.91;49.70;101548.94;5093471;28;20107;-78
2022/05/22 10:33:29;;;;;;;11.88;6.00;;;;;;;20.96;48.75;101555.72;5092065;28;20032;-78
2022/05/22 10:35:57;;;;;;;10.40;6.05;;;;;;;21.44;49.11;101537.97;5100294;28;20028;-78
2022/05/22 10:38:27;;;;;;;11.32;5.35;;;;;;;21.95;47.35;101537.63;5092971;28;20490;-78
2022/05/22 10:43:46;;;;;;;9.73;6.80;;;;;;;21.79;45.27;101527.09;5108756;28;20068;-78
2022/05/22 10:46:12;;;;;;;16.23;6.93;;;;;;;21.43;46.32;101524.81;5106080;28;20470;-79
2022/05/22 10:48:49;;;;;;;9.60;5.55;;;;;;;21.82;46.46;101526.91;5101233;28;20102;-78
2022/05/22 10:51:23;;;;;;;12.77;6.65;;;;;;;22.40;46.80;101514.56;5105941;28;20098;-78
2022/05/22 10:53:52;;;;;;;16.00;7.05;;;;;;;22.91;45.54;101520.16;5106488;28;20051;-79
2022/05/22 10:56:21;;;;;;;12.82;6.25;;;;;;;22.91;41.87;101512.19;5096313;28;20024;-79
2022/05/22 10:58:59;;;;;;;10.52;5.60;;;;;;;23.26;44.58;101501.94;5112007;28;20036;-79
2022/05/22 11:01:36;;;;;;;12.30;6.55;;;;;;;23.45;41.28;101492.72;5108690;28;20048;-79
2022/05/22 11:04:08;;;;;;;14.05;5.53;;;;;;;23.29;42.25;101491.09;5113024;28;20042;-79
2022/05/22 11:06:36;;;;;;;12.90;6.13;;;;;;;23.37;42.18;101494.06;5101151;28;20031;-79
2022/05/22 11:09:05;;;;;;;11.95;5.90;;;;;;;23.64;39.27;101494.97;5096300;28;20417;-79
2022/05/22 11:11:35;;;;;;;9.68;6.00;;;;;;;24.01;40.88;101502.16;5105258;28;20402;-79
2022/05/22 11:14:06;;;;;;;9.85;5.28;;;;;;;24.37;39.34;101495.22;5110156;28;20563;-79
2022/05/22 11:16:32;;;;;;;10.30;4.85;;;;;;;25.01;41.56;101492.34;5107939;28;20036;-79
2022/05/22 11:19:14;;;;;;;10.75;5.80;;;;;;;25.23;40.65;101479.16;5100292;28;20057;-78
2022/05/22 11:21:57;;;;;;;11.23;5.18;;;;;;;24.64;40.16;101483.56;5104054;28;20110;-77
2022/05/22 11:24:35;;;;;;;;;;;;;;;24.29;42.87;101468.25;5112600;28;20425;-78
2022/05/22 11:27:28;;;;;;;11.02;4.90;;;;;;;23.74;42.27;101466.78;5108276;28;20294;-77
2022/05/22 11:30:23;;;;;;;12.20;5.63;;;;;;;23.99;42.54;101461.47;5111153;28;20027;-78
2022/05/22 11:33:13;;;;;;;9.10;5.05;;;;;;;24.36;40.92;101444.69;5111862;28;20379;-77
2022/05/22 11:35:57;;;;;;;9.27;5.40;;;;;;;24.45;39.14;101442.22;5110921;28;20055;-77
2022/05/22 11:38:44;;;;;;;10.18;5.82;;;;;;;24.47;39.93;101440.31;5111891;28;20034;-77